To NAV CANADA Home Page Login to a new session Search on AWWS site Feedback and Comments Disclaimer Vers la page française équivalente Tips FAQ What's new on the site To the Forecasts and Observations / NOTAM section To "File a Flight Plan" website Publications and other links Update of the User's profile FIC Telephone Numbers My Weather Data Folder Route Weather Data Regional Weather Data Local Weather Data To the Forecasts and Observations / NOTAM section
Request Generated 03/02/2015 at 11:10:59 UTC . Weather information available at that time is displayed.

METAR/TAF

ISLAND LAKE/MB    

METAR CYIV 021100Z 24006KT 15SM SKC M22/M26 A3010 RMK SLP220=
METAR CYIV 021000Z 22005KT 160V250 15SM SKC M23/M27 A3011 RMK SLP224=
METAR CYIV 020900Z 22003KT 190V270 15SM SKC M25/M28 A3013 RMK SLP230=

TAF CYIV 020638Z 0207/0219 VRB03KT P6SM SKC
BECMG 0209/0211 21007KT WS005/24020KT
BECMG 0215/0217 20012G22KT
RMK NXT FCST BY 021300Z=
Your time UTC time
Weather data provided by Environment Canada and NAV CANADA